createdAt,value
2022-12-07T00:01:45.267Z,77.38
2022-12-07T00:04:14.323Z,77.55
2022-12-07T00:06:43.456Z,77.63
2022-12-07T00:09:17.638Z,77.45
2022-12-07T00:11:45.282Z,77.56
2022-12-07T00:14:14.321Z,77.69
2022-12-07T00:16:40.965Z,77.60
2022-12-07T00:19:10.344Z,77.37
2022-12-07T00:21:37.285Z,77.75
2022-12-07T00:24:05.615Z,77.78
2022-12-07T00:26:34.927Z,77.85
2022-12-07T00:29:04.944Z,77.66
2022-12-07T00:31:36.078Z,77.36
2022-12-07T00:34:02.636Z,77.48
2022-12-07T00:36:29.303Z,77.35
2022-12-07T00:38:58.265Z,77.70
2022-12-07T00:41:26.085Z,77.60
2022-12-07T00:43:52.903Z,77.55
2022-12-07T00:46:20.575Z,77.63
2022-12-07T00:48:48.089Z,77.42
2022-12-07T00:51:19.853Z,77.53
2022-12-07T00:53:46.773Z,77.43
2022-12-07T00:56:15.615Z,77.59
2022-12-07T00:58:42.220Z,77.49
2022-12-07T01:01:10.637Z,77.83
2022-12-07T01:03:38.074Z,77.51
2022-12-07T01:06:05.019Z,77.42
2022-12-07T01:08:31.886Z,77.34
2022-12-07T01:11:00.399Z,77.62
2022-12-07T01:13:26.879Z,77.57
2022-12-07T01:15:58.763Z,77.55
2022-12-07T01:18:25.195Z,77.51
2022-12-07T01:21:21.907Z,77.53
2022-12-07T01:23:49.048Z,77.61
2022-12-07T01:26:18.751Z,77.59
2022-12-07T01:28:46.394Z,77.88
2022-12-07T01:31:16.345Z,77.54
2022-12-07T01:33:47.965Z,77.61
2022-12-07T01:36:18.002Z,77.68
2022-12-07T01:38:46.228Z,77.80
2022-12-07T01:41:13.432Z,77.91
2022-12-07T01:44:20.046Z,77.82
2022-12-07T01:47:01.052Z,77.77
2022-12-07T01:49:33.330Z,77.73
2022-12-07T01:52:25.626Z,77.75
2022-12-07T01:54:56.604Z,77.82
2022-12-07T01:57:23.618Z,77.81
2022-12-07T01:59:53.025Z,77.66
2022-12-07T02:02:24.616Z,77.76
2022-12-07T02:04:54.211Z,77.69
2022-12-07T02:07:22.787Z,77.69
2022-12-07T02:09:49.214Z,77.82
2022-12-07T02:12:16.013Z,77.42
2022-12-07T02:14:42.737Z,77.83
2022-12-07T02:17:15.885Z,77.75
2022-12-07T02:20:13.010Z,77.85
2022-12-07T02:23:13.678Z,77.78
2022-12-07T02:25:55.175Z,77.95
2022-12-07T02:28:36.032Z,77.88
2022-12-07T02:31:19.177Z,77.97
2022-12-07T02:33:52.824Z,78.00
2022-12-07T02:36:33.614Z,77.85
2022-12-07T02:39:12.426Z,77.98
2022-12-07T02:41:44.231Z,77.90
2022-12-07T02:44:15.256Z,78.22
2022-12-07T02:46:45.796Z,78.12
2022-12-07T02:49:38.469Z,78.01
2022-12-07T02:52:05.590Z,78.15
2022-12-07T02:54:32.019Z,78.02
2022-12-07T02:56:58.885Z,78.29
2022-12-07T02:59:30.634Z,78.15
2022-12-07T03:02:18.741Z,78.12
2022-12-07T03:05:00.437Z,78.18
2022-12-07T03:07:38.992Z,77.93
2022-12-07T03:10:12.318Z,77.81
2022-12-07T03:13:03.467Z,77.90
2022-12-07T03:15:42.657Z,78.34
2022-12-07T03:18:12.932Z,78.29
2022-12-07T03:20:41.990Z,78.08
2022-12-07T03:23:11.080Z,78.54
2022-12-07T03:25:46.317Z,78.13
2022-12-07T03:28:16.720Z,78.17
2022-12-07T03:30:50.112Z,78.34
2022-12-07T03:33:33.060Z,78.24
2022-12-07T03:36:08.593Z,78.40
2022-12-07T03:38:43.662Z,78.53
2022-12-07T03:41:15.825Z,78.56
2022-12-07T03:43:42.794Z,78.42
2022-12-07T03:46:18.575Z,78.17
2022-12-07T03:49:23.674Z,78.59
2022-12-07T03:52:07.119Z,78.48
2022-12-07T03:54:50.482Z,78.44
2022-12-07T03:57:18.451Z,78.31
2022-12-07T03:59:48.513Z,78.44
2022-12-07T04:02:15.839Z,78.26
2022-12-07T04:04:43.785Z,78.59
2022-12-07T04:07:10.578Z,78.29
2022-12-07T04:09:36.957Z,78.45
2022-12-07T04:12:03.504Z,78.33
2022-12-07T04:14:29.973Z,78.45
2022-12-07T04:16:58.695Z,78.19
2022-12-07T04:19:27.280Z,78.11
2022-12-07T04:21:54.029Z,78.53
2022-12-07T04:24:20.953Z,78.31
2022-12-07T04:26:47.947Z,78.24
2022-12-07T04:29:15.547Z,78.40
2022-12-07T04:31:42.856Z,78.56
2022-12-07T04:34:09.872Z,78.43
2022-12-07T04:36:36.578Z,78.42
2022-12-07T04:39:04.102Z,78.45
2022-12-07T04:41:30.765Z,78.30
2022-12-07T04:43:59.581Z,78.45
2022-12-07T04:46:27.480Z,78.07
2022-12-07T04:48:54.879Z,78.40
2022-12-07T04:51:27.412Z,78.63
2022-12-07T04:53:54.223Z,78.17
2022-12-07T04:56:20.805Z,77.88
2022-12-07T04:58:48.459Z,78.22
2022-12-07T05:01:17.227Z,78.39
2022-12-07T05:03:44.071Z,78.54
2022-12-07T05:06:13.542Z,78.47
2022-12-07T05:08:40.883Z,78.36
2022-12-07T05:11:08.330Z,78.57
2022-12-07T05:13:35.667Z,78.30
2022-12-07T05:16:02.248Z,78.42
2022-12-07T05:18:28.697Z,78.42
2022-12-07T05:20:55.207Z,78.57
2022-12-07T05:23:21.653Z,78.45
2022-12-07T05:25:48.284Z,78.46
2022-12-07T05:28:14.702Z,78.37
2022-12-07T05:30:41.062Z,78.47
2022-12-07T05:33:10.172Z,78.51
2022-12-07T05:35:38.852Z,78.61
2022-12-07T05:38:05.269Z,78.48
2022-12-07T05:40:31.695Z,78.38
2022-12-07T05:43:04.014Z,78.55
2022-12-07T05:45:33.201Z,78.77
2022-12-07T05:47:59.696Z,78.65
2022-12-07T05:50:26.257Z,78.44
2022-12-07T05:52:52.693Z,78.26
2022-12-07T05:55:20.924Z,78.31
2022-12-07T05:58:08.354Z,78.62
2022-12-07T06:00:34.737Z,78.50
2022-12-07T06:03:01.384Z,78.63
2022-12-07T06:05:28.017Z,78.61
2022-12-07T06:07:54.454Z,78.82
2022-12-07T06:10:20.973Z,78.58
2022-12-07T06:12:47.512Z,78.44
2022-12-07T06:15:14.448Z,78.52
2022-12-07T06:17:40.857Z,78.68
2022-12-07T06:20:10.678Z,78.43
2022-12-07T06:22:37.006Z,78.71
2022-12-07T06:25:08.385Z,78.52
2022-12-07T06:27:36.374Z,78.59
2022-12-07T06:30:07.606Z,78.60
2022-12-07T06:32:35.211Z,78.40
2022-12-07T06:35:01.976Z,78.60
2022-12-07T06:37:28.386Z,78.41
2022-12-07T06:39:54.899Z,78.46
2022-12-07T06:42:21.322Z,78.45
2022-12-07T06:44:47.815Z,78.37
2022-12-07T06:47:40.689Z,78.47
2022-12-07T06:50:04.326Z,78.65
2022-12-07T06:52:33.922Z,78.40
2022-12-07T06:55:00.502Z,78.35
2022-12-07T06:57:27.486Z,78.47
2022-12-07T06:59:53.910Z,78.49
2022-12-07T07:02:20.578Z,78.38
2022-12-07T07:04:47.073Z,78.50
2022-12-07T07:07:13.481Z,78.51
2022-12-07T07:09:39.945Z,78.47
2022-12-07T07:12:07.939Z,78.06
2022-12-07T07:14:34.311Z,78.42
2022-12-07T07:17:00.730Z,78.22
2022-12-07T07:19:27.315Z,77.86
2022-12-07T07:21:53.760Z,77.94
2022-12-07T07:24:20.296Z,77.75
2022-12-07T07:26:46.748Z,77.69
2022-12-07T07:29:13.431Z,77.88
2022-12-07T07:31:41.963Z,77.10
2022-12-07T07:34:08.595Z,76.55
2022-12-07T07:36:35.133Z,76.07
2022-12-07T07:39:01.551Z,75.55
2022-12-07T07:41:28.127Z,75.58
2022-12-07T07:43:56.584Z,74.97
2022-12-07T07:46:23.151Z,74.76
2022-12-07T07:48:49.675Z,74.98
2022-12-07T07:51:16.260Z,74.70
2022-12-07T07:53:42.741Z,74.79
2022-12-07T07:56:11.432Z,74.50
2022-12-07T07:58:40.277Z,74.85
2022-12-07T08:01:10.673Z,74.55
2022-12-07T08:03:37.155Z,74.79
2022-12-07T08:06:07.076Z,74.52
2022-12-07T08:08:33.514Z,74.50
2022-12-07T08:11:02.966Z,74.53
2022-12-07T08:13:31.539Z,74.38
2022-12-07T08:15:59.072Z,74.36
2022-12-07T08:18:25.579Z,74.25
2022-12-07T08:20:51.982Z,74.27
2022-12-07T08:23:18.539Z,74.21
2022-12-07T08:25:45.057Z,74.66
2022-12-07T08:28:11.647Z,74.85
2022-12-07T08:30:38.293Z,74.90
2022-12-07T08:33:04.832Z,75.40
2022-12-07T08:35:34.277Z,75.57
2022-12-07T08:38:04.937Z,75.66
2022-12-07T08:40:31.738Z,75.92
2022-12-07T08:42:58.283Z,76.20
2022-12-07T08:45:27.301Z,76.29
2022-12-07T08:48:02.158Z,76.71
2022-12-07T08:50:28.889Z,76.65
2022-12-07T08:52:57.985Z,76.95
2022-12-07T08:55:24.630Z,76.96
2022-12-07T08:57:52.387Z,77.16
2022-12-07T09:00:19.090Z,77.07
2022-12-07T09:02:46.570Z,77.45
2022-12-07T09:05:16.900Z,77.57
2022-12-07T09:07:50.188Z,77.50
2022-12-07T09:10:16.709Z,77.97
2022-12-07T09:12:43.138Z,77.71
2022-12-07T09:15:09.767Z,77.95
2022-12-07T09:17:37.193Z,77.80
2022-12-07T09:20:07.676Z,77.63
2022-12-07T09:22:34.692Z,77.66
2022-12-07T09:25:01.821Z,77.71
2022-12-07T09:27:35.492Z,77.56
2022-12-07T09:30:02.367Z,77.56
2022-12-07T09:32:29.061Z,77.52
2022-12-07T09:34:56.145Z,77.83
2022-12-07T09:37:22.819Z,77.59
2022-12-07T09:39:50.488Z,77.80
2022-12-07T09:42:30.798Z,78.32
2022-12-07T09:45:00.723Z,78.11
2022-12-07T09:47:30.046Z,78.20
2022-12-07T09:50:06.931Z,78.50
2022-12-07T09:52:38.838Z,78.68
2022-12-07T09:55:12.116Z,78.86
2022-12-07T09:57:38.591Z,79.35
2022-12-07T10:00:17.546Z,78.84
2022-12-07T10:02:48.670Z,78.63
2022-12-07T10:05:30.275Z,78.41
2022-12-07T10:07:56.948Z,78.28
2022-12-07T10:10:42.148Z,78.15
2022-12-07T10:13:11.074Z,78.44
2022-12-07T10:15:49.903Z,78.90
2022-12-07T10:18:19.179Z,78.89
2022-12-07T10:20:49.259Z,78.77
2022-12-07T10:23:19.339Z,78.98
2022-12-07T10:25:46.168Z,78.52
2022-12-07T10:28:16.463Z,78.25
2022-12-07T10:31:05.233Z,78.51
2022-12-07T10:33:51.826Z,79.10
2022-12-07T10:36:22.711Z,78.71
2022-12-07T10:38:53.647Z,79.23
2022-12-07T10:41:21.113Z,79.22
2022-12-07T10:43:49.720Z,78.89
2022-12-07T10:46:19.437Z,79.23
2022-12-07T10:48:55.154Z,78.99
2022-12-07T10:51:40.522Z,78.98
2022-12-07T10:54:29.680Z,79.09
2022-12-07T10:56:59.191Z,79.51
2022-12-07T10:59:38.701Z,79.24
2022-12-07T11:02:38.207Z,79.45
2022-12-07T11:05:16.810Z,79.79
2022-12-07T11:07:46.571Z,79.31
2022-12-07T11:10:27.078Z,79.00
2022-12-07T11:13:22.545Z,79.19
2022-12-07T11:16:07.028Z,78.91
2022-12-07T11:19:06.993Z,79.34
2022-12-07T11:21:49.481Z,79.47
2022-12-07T11:24:23.286Z,79.29
2022-12-07T11:27:23.891Z,79.58
2022-12-07T11:30:03.423Z,79.64
2022-12-07T11:32:57.815Z,79.83
2022-12-07T11:35:36.772Z,79.63
2022-12-07T11:38:26.293Z,80.24
2022-12-07T11:41:13.663Z,80.08
2022-12-07T11:44:27.020Z,79.86
2022-12-07T11:47:31.346Z,79.55
2022-12-07T11:50:16.709Z,79.86
2022-12-07T11:52:53.495Z,79.75
2022-12-07T11:55:41.363Z,79.84
2022-12-07T11:58:45.670Z,79.25
2022-12-07T12:01:20.548Z,78.96
2022-12-07T12:04:03.460Z,78.90
2022-12-07T12:06:29.921Z,78.35
2022-12-07T12:15:21.603Z,78.33
2022-12-07T12:18:06.027Z,77.91
2022-12-07T12:21:03.844Z,78.04
2022-12-07T12:23:33.154Z,77.86
2022-12-07T12:26:03.560Z,77.52
2022-12-07T12:28:36.116Z,77.09
2022-12-07T12:31:15.243Z,77.59
2022-12-07T12:33:48.292Z,77.35
2022-12-07T12:36:19.788Z,76.95
2022-12-07T12:39:09.902Z,77.08
2022-12-07T12:41:36.367Z,77.42
2022-12-07T12:44:04.059Z,77.66
2022-12-07T12:46:30.483Z,77.95
2022-12-07T12:49:17.138Z,77.58
2022-12-07T12:51:45.449Z,77.40
2022-12-07T12:54:19.562Z,77.67
2022-12-07T12:56:59.570Z,77.59
2022-12-07T12:59:39.072Z,77.60
2022-12-07T13:02:29.474Z,77.39
2022-12-07T13:04:59.899Z,77.47
2022-12-07T13:07:48.331Z,77.70
2022-12-07T13:10:29.417Z,77.68
2022-12-07T13:13:20.704Z,77.93
2022-12-07T13:15:51.380Z,77.59
2022-12-07T13:18:37.185Z,77.93
2022-12-07T13:21:29.370Z,78.03
2022-12-07T13:24:01.055Z,78.18
2022-12-07T13:26:39.067Z,77.84
2022-12-07T13:29:14.936Z,78.02
2022-12-07T13:31:56.601Z,78.00
2022-12-07T13:34:36.488Z,77.98
2022-12-07T13:37:13.704Z,78.20
2022-12-07T13:39:52.709Z,77.38
2022-12-07T13:42:35.624Z,77.84
2022-12-07T13:45:22.763Z,77.97
2022-12-07T13:47:54.343Z,78.04
2022-12-07T13:50:29.591Z,77.83
2022-12-07T13:53:00.121Z,77.48
2022-12-07T13:55:27.846Z,77.54
2022-12-07T13:57:58.106Z,77.36
2022-12-07T14:00:30.858Z,77.80
2022-12-07T14:03:12.918Z,77.63
2022-12-07T14:05:44.420Z,77.85
2022-12-07T14:08:11.200Z,77.44
2022-12-07T14:10:39.618Z,77.47
2022-12-07T14:13:42.141Z,77.09
2022-12-07T14:16:26.659Z,77.33
2022-12-07T14:18:53.749Z,77.35
2022-12-07T14:21:24.314Z,77.34
2022-12-07T14:24:10.423Z,77.53
2022-12-07T14:26:38.775Z,77.47
2022-12-07T14:29:32.258Z,77.67
2022-12-07T14:32:01.778Z,77.40
2022-12-07T14:34:28.469Z,77.60
2022-12-07T14:36:54.952Z,77.70
2022-12-07T14:39:21.501Z,77.39
2022-12-07T14:42:00.299Z,77.60
2022-12-07T14:44:30.767Z,77.54
2022-12-07T14:49:51.713Z,77.39
2022-12-07T14:55:29.314Z,77.27
2022-12-07T14:57:55.982Z,76.98
2022-12-07T15:00:24.726Z,77.48
2022-12-07T15:02:52.098Z,77.42
2022-12-07T15:05:19.644Z,77.30
2022-12-07T15:07:47.601Z,77.50
2022-12-07T15:10:23.646Z,76.84
2022-12-07T15:12:51.071Z,76.37
2022-12-07T15:15:18.368Z,76.46
2022-12-07T15:17:44.970Z,75.54
2022-12-07T15:20:17.819Z,75.65
2022-12-07T15:22:44.318Z,75.64
2022-12-07T15:25:14.414Z,75.48
2022-12-07T15:27:40.868Z,75.56
2022-12-07T15:30:08.104Z,75.58
2022-12-07T15:32:34.879Z,75.25
2022-12-07T15:35:02.126Z,75.17
2022-12-07T15:37:28.954Z,75.12
2022-12-07T15:39:55.466Z,75.22
2022-12-07T15:42:21.950Z,75.14
2022-12-07T15:45:09.152Z,74.93
2022-12-07T15:48:10.361Z,74.95
2022-12-07T15:50:27.836Z,74.90
2022-12-07T15:52:54.251Z,74.67
2022-12-07T15:55:20.718Z,74.62
2022-12-07T15:57:47.224Z,74.88
2022-12-07T16:00:14.784Z,75.00
2022-12-07T16:02:41.206Z,74.85
2022-12-07T16:05:10.910Z,74.43
2022-12-07T16:07:40.284Z,74.75
2022-12-07T16:10:10.465Z,74.71
2022-12-07T16:12:36.981Z,74.66
2022-12-07T16:15:03.819Z,74.83
2022-12-07T16:17:30.650Z,74.72
2022-12-07T16:19:57.249Z,74.40
2022-12-07T16:22:24.335Z,74.92
2022-12-07T16:24:50.689Z,74.57
2022-12-07T16:27:17.223Z,74.80
2022-12-07T16:29:43.730Z,74.77
2022-12-07T16:32:12.806Z,74.46
2022-12-07T16:34:40.606Z,74.33
2022-12-07T16:37:07.063Z,74.53
2022-12-07T16:39:34.935Z,74.75
2022-12-07T16:42:01.495Z,74.36
2022-12-07T16:44:28.195Z,74.58
2022-12-07T16:46:54.786Z,74.53
2022-12-07T16:49:21.269Z,74.48
2022-12-07T16:52:18.107Z,74.47
2022-12-07T16:54:40.629Z,74.70
2022-12-07T16:57:07.129Z,74.32
2022-12-07T16:59:33.713Z,74.54
2022-12-07T17:02:03.110Z,74.39
2022-12-07T17:04:29.575Z,74.79
2022-12-07T17:06:57.820Z,74.48
2022-12-07T17:09:24.322Z,74.37
2022-12-07T17:11:52.183Z,74.50
2022-12-07T17:14:38.206Z,74.74
2022-12-07T17:17:05.364Z,74.63
2022-12-07T17:22:59.329Z,74.31
2022-12-07T17:26:10.567Z,74.47
2022-12-07T17:31:37.964Z,74.44
2022-12-07T17:34:05.190Z,74.66
2022-12-07T17:36:32.849Z,74.67
2022-12-07T17:38:59.417Z,74.77
2022-12-07T17:41:46.792Z,74.86
2022-12-07T17:44:16.514Z,75.06
2022-12-07T17:46:44.721Z,75.50
2022-12-07T17:49:11.658Z,75.89
2022-12-07T17:51:56.800Z,75.90
2022-12-07T17:54:23.901Z,75.95
2022-12-07T17:56:50.366Z,75.83
2022-12-07T17:59:17.161Z,76.05
2022-12-07T18:01:44.557Z,76.27
2022-12-07T18:04:11.396Z,76.47
2022-12-07T18:06:38.514Z,76.47
2022-12-07T18:09:05.590Z,76.61
2022-12-07T18:11:33.288Z,76.63
2022-12-07T18:14:00.120Z,76.07
2022-12-07T18:16:31.387Z,76.46
2022-12-07T18:19:08.691Z,76.39
2022-12-07T18:21:35.800Z,76.86
2022-12-07T18:24:04.363Z,76.72
2022-12-07T18:26:35.619Z,76.66
2022-12-07T18:29:02.234Z,76.64
2022-12-07T18:31:32.120Z,76.55
2022-12-07T18:34:08.899Z,76.91
2022-12-07T18:36:35.527Z,76.94
2022-12-07T18:39:05.413Z,77.07
2022-12-07T18:41:32.220Z,76.78
2022-12-07T18:43:58.680Z,76.77
2022-12-07T18:46:26.147Z,76.87
2022-12-07T18:48:57.314Z,76.97
2022-12-07T18:51:28.776Z,76.88
2022-12-07T18:54:00.400Z,77.04
2022-12-07T18:56:27.850Z,77.06
2022-12-07T18:59:15.541Z,77.06
2022-12-07T19:01:49.046Z,76.50
2022-12-07T19:04:16.507Z,76.75
2022-12-07T19:06:45.517Z,77.05
2022-12-07T19:09:15.244Z,77.17
2022-12-07T19:11:51.624Z,76.73
2022-12-07T19:14:34.321Z,76.85
2022-12-07T19:17:07.256Z,77.02
2022-12-07T19:19:47.429Z,76.93
2022-12-07T19:22:19.914Z,77.07
2022-12-07T19:24:49.935Z,77.06
2022-12-07T19:27:17.626Z,76.90
2022-12-07T19:29:46.619Z,76.95
2022-12-07T19:32:13.937Z,77.12
2022-12-07T19:34:42.820Z,77.09
2022-12-07T19:37:11.710Z,76.92
2022-12-07T19:39:39.696Z,77.04
2022-12-07T19:42:15.937Z,76.81
2022-12-07T19:44:48.273Z,76.96
2022-12-07T19:47:21.969Z,76.81
2022-12-07T19:49:48.540Z,76.99
2022-12-07T19:52:15.112Z,76.67
2022-12-07T19:54:41.674Z,77.09
2022-12-07T19:57:11.425Z,76.83
2022-12-07T19:59:37.988Z,77.04
2022-12-07T20:02:04.413Z,76.80
2022-12-07T20:04:32.664Z,76.92
2022-12-07T20:07:00.648Z,76.80
2022-12-07T20:09:27.851Z,77.13
2022-12-07T20:12:12.785Z,76.86
2022-12-07T20:14:39.334Z,76.86
2022-12-07T20:17:06.727Z,77.02
2022-12-07T20:19:36.564Z,77.00
2022-12-07T20:22:08.859Z,77.13
2022-12-07T20:24:36.279Z,77.20
2022-12-07T20:27:04.293Z,77.16
2022-12-07T20:29:31.417Z,77.04
2022-12-07T20:31:58.254Z,76.87
2022-12-07T20:34:26.570Z,77.09
2022-12-07T20:36:54.937Z,77.23
2022-12-07T20:39:23.579Z,77.18
2022-12-07T20:42:09.454Z,77.00
2022-12-07T20:44:36.121Z,77.28
2022-12-07T20:47:04.428Z,77.27
2022-12-07T20:49:30.949Z,77.25
2022-12-07T20:52:00.839Z,76.90
2022-12-07T20:54:27.432Z,77.15
2022-12-07T20:56:54.013Z,77.22
2022-12-07T20:59:21.470Z,77.24
2022-12-07T21:01:48.537Z,77.27
2022-12-07T21:04:15.386Z,76.98
2022-12-07T21:06:42.235Z,77.13
2022-12-07T21:09:10.447Z,77.18
2022-12-07T21:11:37.753Z,77.26
2022-12-07T21:14:04.296Z,77.23
2022-12-07T21:16:32.653Z,77.04
2022-12-07T21:19:02.810Z,77.07
2022-12-07T21:21:31.152Z,77.03
2022-12-07T21:24:03.456Z,77.29
2022-12-07T21:26:35.513Z,77.43
2022-12-07T21:29:04.592Z,77.11
2022-12-07T21:31:31.499Z,77.63
2022-12-07T21:34:02.279Z,77.42
2022-12-07T21:36:28.790Z,77.16
2022-12-07T21:38:55.422Z,77.37
2022-12-07T21:41:23.185Z,77.38
2022-12-07T21:43:50.559Z,77.30
2022-12-07T21:46:18.324Z,77.40
2022-12-07T21:48:53.134Z,77.16
2022-12-07T21:51:21.178Z,77.16
2022-12-07T21:53:49.381Z,77.45
2022-12-07T21:56:21.186Z,77.53
2022-12-07T21:58:49.213Z,77.32
2022-12-07T22:01:24.210Z,77.38
2022-12-07T22:03:51.546Z,77.29
2022-12-07T22:06:20.919Z,77.16
2022-12-07T22:08:47.521Z,77.12
2022-12-07T22:11:15.502Z,77.35
2022-12-07T22:14:06.735Z,77.41
2022-12-07T22:16:36.693Z,77.51
2022-12-07T22:19:03.667Z,77.38
2022-12-07T22:21:31.470Z,77.42
2022-12-07T22:23:57.920Z,77.33
2022-12-07T22:26:24.909Z,77.40
2022-12-07T22:28:51.770Z,77.37
2022-12-07T22:31:19.801Z,77.20
2022-12-07T22:33:46.633Z,77.70
2022-12-07T22:36:15.674Z,77.58
2022-12-07T22:38:43.315Z,77.41
2022-12-07T22:41:12.432Z,77.80
2022-12-07T22:43:39.322Z,77.54
2022-12-07T22:46:07.760Z,77.43
2022-12-07T22:48:34.368Z,77.80
2022-12-07T22:51:01.526Z,77.53
2022-12-07T22:53:28.414Z,77.54
2022-12-07T22:55:55.195Z,77.45
2022-12-07T22:58:21.876Z,77.73
2022-12-07T23:00:48.486Z,77.60
2022-12-07T23:03:15.234Z,77.75
2022-12-07T23:05:46.222Z,77.91
2022-12-07T23:08:13.532Z,77.79
2022-12-07T23:10:45.961Z,77.66
2022-12-07T23:13:32.304Z,77.72
2022-12-07T23:16:13.333Z,77.43
2022-12-07T23:18:41.638Z,77.72
2022-12-07T23:21:09.114Z,77.68
2022-12-07T23:23:35.745Z,77.77
2022-12-07T23:26:04.233Z,77.71
2022-12-07T23:28:31.145Z,77.72
2022-12-07T23:31:08.582Z,77.59
2022-12-07T23:33:35.340Z,77.62
2022-12-07T23:36:15.372Z,77.91
2022-12-07T23:38:46.422Z,77.59
2022-12-07T23:41:15.373Z,77.90
2022-12-07T23:43:42.345Z,77.75
2022-12-07T23:46:10.890Z,77.89
2022-12-07T23:48:38.471Z,77.68
2022-12-07T23:51:06.120Z,77.82
2022-12-07T23:53:34.118Z,77.79
2022-12-07T23:56:00.894Z,77.95
2022-12-07T23:58:27.468Z,77.96
